Time;durP1;ratioP1;P1;durP2;ratioP2;P2;SDS_P1;SDS_P2;PMS_P1;PMS_P2;Temp;Humidity;BMP_temperature;BMP_pressure;BME280_temperature;BME280_humidity;BME280_pressure;Samples;Min_cycle;Max_cycle;Signal;HPM_P1;HPM_P2
2023/06/30 00:02:20;;;;;;;6.18;5.75;;;;;;;;;;5088078;28;20027;-74
2023/06/30 00:04:47;;;;;;;7.32;6.72;;;;;;;;;;5087484;28;20115;-75
2023/06/30 00:07:13;;;;;;;6.40;5.90;;;;;;;;;;5087745;28;20063;-73
2023/06/30 00:09:38;;;;;;;7.75;6.97;;;;;;;;;;5086299;28;20026;-75
2023/06/30 00:12:04;;;;;;;7.32;6.72;;;;;;;;;;5086868;28;20140;-73
2023/06/30 00:14:29;;;;;;;7.78;7.07;;;;;;;;;;5087317;28;20471;-73
2023/06/30 00:16:56;;;;;;;7.22;5.70;;;;;;;;;;5088159;28;20133;-75
2023/06/30 00:19:23;;;;;;;8.30;6.43;;;;;;;;;;5091613;27;20053;-75
2023/06/30 00:21:52;;;;;;;7.40;6.80;;;;;;;;;;5091440;28;20102;-76
2023/06/30 00:24:18;;;;;;;7.30;6.70;;;;;;;;;;5102273;27;20028;-77
2023/06/30 00:26:43;;;;;;;7.80;7.15;;;;;;;;;;5092528;28;20034;-76
2023/06/30 00:29:09;;;;;;;8.05;7.32;;;;;;;;;;5101436;28;20027;-75
2023/06/30 00:31:34;;;;;;;7.63;7.03;;;;;;;;;;5096399;28;20160;-75
2023/06/30 00:34:00;;;;;;;7.80;7.10;;;;;;;;;;5092877;27;20026;-75
2023/06/30 00:36:25;;;;;;;7.57;6.88;;;;;;;;;;5097667;28;20027;-76
2023/06/30 00:38:54;;;;;;;7.97;7.38;;;;;;;;;;5100590;28;20035;-75
2023/06/30 00:41:20;;;;;;;9.60;7.35;;;;;;;;;;5104202;28;20023;-76
2023/06/30 00:43:45;;;;;;;7.28;6.68;;;;;;;;;;5101614;27;20084;-75
2023/06/30 00:46:12;;;;;;;7.80;7.03;;;;;;;;;;5095617;28;20031;-76
2023/06/30 00:48:38;;;;;;;7.22;6.63;;;;;;;;;;5094378;28;20027;-76
2023/06/30 00:51:04;;;;;;;6.82;6.32;;;;;;;;;;5094001;28;20990;-76
2023/06/30 00:53:29;;;;;;;7.57;6.72;;;;;;;;;;5102457;28;20023;-76
2023/06/30 00:55:55;;;;;;;7.38;6.70;;;;;;;;;;5092748;28;20046;-76
2023/06/30 00:58:20;;;;;;;6.93;6.32;;;;;;;;;;5100106;28;20059;-76
2023/06/30 01:00:46;;;;;;;7.80;6.97;;;;;;;;;;5099160;28;20108;-76
2023/06/30 01:03:25;;;;;;;7.45;6.85;;;;;;;;;;5094616;28;20035;-75
2023/06/30 01:05:50;;;;;;;7.43;6.72;;;;;;;;;;5101693;28;20476;-75
2023/06/30 01:08:20;;;;;;;8.25;7.32;;;;;;;;;;5091071;28;20115;-75
2023/06/30 01:10:46;;;;;;;7.10;6.57;;;;;;;;;;5094999;28;20026;-76
2023/06/30 01:13:13;;;;;;;9.43;6.68;;;;;;;;;;5103998;28;20019;-75
2023/06/30 01:15:38;;;;;;;7.70;7.00;;;;;;;;;;5101581;28;20092;-76
2023/06/30 01:18:04;;;;;;;7.95;7.32;;;;;;;;;;5092269;28;20605;-77
2023/06/30 01:20:32;;;;;;;7.78;7.18;;;;;;;;;;5101553;27;20039;-76
2023/06/30 01:23:04;;;;;;;7.57;6.97;;;;;;;;;;5102152;28;20115;-75
2023/06/30 01:25:29;;;;;;;7.45;6.72;;;;;;;;;;5102066;28;20457;-75
2023/06/30 01:27:55;;;;;;;7.38;6.32;;;;;;;;;;5100664;28;20063;-76
2023/06/30 01:30:21;;;;;;;7.43;6.72;;;;;;;;;;5102267;28;20062;-77
2023/06/30 01:32:48;;;;;;;7.68;6.97;;;;;;;;;;5089794;28;24360;-76
2023/06/30 01:35:14;;;;;;;7.20;6.55;;;;;;;;;;5091622;28;20020;-75
2023/06/30 01:37:39;;;;;;;6.95;6.25;;;;;;;;;;5102174;27;20437;-75
2023/06/30 01:40:05;;;;;;;7.53;6.80;;;;;;;;;;5103405;28;20047;-76
2023/06/30 01:42:31;;;;;;;7.15;6.45;;;;;;;;;;5101649;28;20020;-78
2023/06/30 01:44:58;;;;;;;7.22;6.63;;;;;;;;;;5100320;28;20046;-76
2023/06/30 01:47:23;;;;;;;7.38;6.68;;;;;;;;;;5091275;28;20034;-75
2023/06/30 01:49:48;;;;;;;7.57;6.50;;;;;;;;;;5101183;27;20019;-75
2023/06/30 01:52:14;;;;;;;8.07;6.43;;;;;;;;;;5101602;28;20024;-76
2023/06/30 01:54:39;;;;;;;7.60;6.97;;;;;;;;;;5092710;28;20016;-75
2023/06/30 01:57:05;;;;;;;8.05;7.25;;;;;;;;;;5097861;27;20087;-74
2023/06/30 01:59:30;;;;;;;6.88;6.13;;;;;;;;;;5088762;28;20501;-76
2023/06/30 02:01:55;;;;;;;7.07;6.47;;;;;;;;;;5092040;28;20082;-75
2023/06/30 02:04:21;;;;;;;7.25;6.75;;;;;;;;;;5100016;28;20019;-76
2023/06/30 02:06:46;;;;;;;8.10;6.90;;;;;;;;;;5099702;28;20510;-75
2023/06/30 02:09:12;;;;;;;10.30;7.53;;;;;;;;;;5100217;27;20060;-76
2023/06/30 02:11:37;;;;;;;7.90;7.32;;;;;;;;;;5099430;28;20039;-76
2023/06/30 02:14:03;;;;;;;7.85;7.25;;;;;;;;;;5094692;28;20032;-75
2023/06/30 02:16:28;;;;;;;8.07;7.38;;;;;;;;;;5091297;28;20033;-76
2023/06/30 02:18:54;;;;;;;8.70;7.82;;;;;;;;;;5096701;28;20508;-77
2023/06/30 02:21:20;;;;;;;9.38;8.65;;;;;;;;;;5100156;28;20346;-77
2023/06/30 02:23:45;;;;;;;8.98;8.18;;;;;;;;;;5096690;28;20027;-76
2023/06/30 02:26:11;;;;;;;8.63;7.82;;;;;;;;;;5093688;28;20347;-77
2023/06/30 02:28:36;;;;;;;9.82;7.90;;;;;;;;;;5100909;27;20024;-77
2023/06/30 02:31:01;;;;;;;8.20;7.38;;;;;;;;;;5097537;28;20102;-78
2023/06/30 02:33:27;;;;;;;8.18;7.57;;;;;;;;;;5093648;28;20034;-76
2023/06/30 02:35:52;;;;;;;10.60;7.80;;;;;;;;;;5099294;28;20098;-77
2023/06/30 02:38:17;;;;;;;9.45;7.50;;;;;;;;;;5099672;28;20059;-77
2023/06/30 02:40:43;;;;;;;9.23;7.18;;;;;;;;;;5100921;28;20023;-77
2023/06/30 02:43:08;;;;;;;7.72;7.07;;;;;;;;;;5097681;27;20027;-76
2023/06/30 02:45:33;;;;;;;8.20;7.40;;;;;;;;;;5088838;28;20080;-76
2023/06/30 02:47:59;;;;;;;11.02;7.90;;;;;;;;;;5090831;28;20092;-75
2023/06/30 02:50:28;;;;;;;8.82;8.02;;;;;;;;;;5091074;28;20343;-75
2023/06/30 02:52:54;;;;;;;9.00;8.07;;;;;;;;;;5097885;28;20028;-76
2023/06/30 02:55:19;;;;;;;9.55;7.95;;;;;;;;;;5098804;28;20026;-76
2023/06/30 02:57:44;;;;;;;8.32;7.72;;;;;;;;;;5096129;28;20123;-76
2023/06/30 03:00:10;;;;;;;9.20;8.25;;;;;;;;;;5090683;28;20034;-75
2023/06/30 03:02:36;;;;;;;9.07;8.43;;;;;;;;;;5090026;28;20023;-75
2023/06/30 03:05:01;;;;;;;9.27;8.40;;;;;;;;;;5099326;28;20107;-75
2023/06/30 03:07:26;;;;;;;8.43;7.80;;;;;;;;;;5099355;28;20052;-76
2023/06/30 03:09:53;;;;;;;9.15;8.32;;;;;;;;;;5090851;28;20123;-76
2023/06/30 03:12:18;;;;;;;9.10;8.30;;;;;;;;;;5099535;28;20051;-76
2023/06/30 03:14:44;;;;;;;9.77;8.52;;;;;;;;;;5099866;28;20115;-75
2023/06/30 03:17:09;;;;;;;8.65;8.05;;;;;;;;;;5089887;28;20028;-76
2023/06/30 03:19:34;;;;;;;8.35;7.65;;;;;;;;;;5098491;28;20039;-76
2023/06/30 03:22:00;;;;;;;9.10;8.27;;;;;;;;;;5101486;28;20023;-75
2023/06/30 03:24:25;;;;;;;9.20;8.40;;;;;;;;;;5098870;28;20132;-77
2023/06/30 03:26:51;;;;;;;9.32;8.57;;;;;;;;;;5101214;28;20020;-75
2023/06/30 03:29:16;;;;;;;9.73;8.93;;;;;;;;;;5095016;28;20019;-75
2023/06/30 03:31:41;;;;;;;11.00;10.00;;;;;;;;;;5088432;28;20103;-75
2023/06/30 03:34:07;;;;;;;10.95;9.93;;;;;;;;;;5094065;28;20422;-79
2023/06/30 03:36:32;;;;;;;10.98;9.88;;;;;;;;;;5098513;27;20032;-76
2023/06/30 03:38:57;;;;;;;11.25;10.18;;;;;;;;;;5099079;28;20043;-75
2023/06/30 03:41:23;;;;;;;10.70;9.75;;;;;;;;;;5099723;28;20024;-78
2023/06/30 03:43:48;;;;;;;11.23;10.13;;;;;;;;;;5099423;28;20347;-75
2023/06/30 03:46:15;;;;;;;11.90;9.65;;;;;;;;;;5096618;28;20115;-76
2023/06/30 03:48:40;;;;;;;10.57;9.55;;;;;;;;;;5094694;28;20147;-74
2023/06/30 03:51:06;;;;;;;17.40;9.55;;;;;;;;;;5100533;28;20438;-77
2023/06/30 03:53:31;;;;;;;9.98;9.15;;;;;;;;;;5105194;27;20347;-76
2023/06/30 03:55:58;;;;;;;10.18;9.15;;;;;;;;;;5097650;28;20024;-75
2023/06/30 03:58:23;;;;;;;12.45;9.23;;;;;;;;;;5090343;28;20877;-75
2023/06/30 04:00:49;;;;;;;9.27;8.48;;;;;;;;;;5089251;28;20027;-74
2023/06/30 04:03:14;;;;;;;10.57;9.48;;;;;;;;;;5089756;28;20172;-74
2023/06/30 04:05:40;;;;;;;10.68;9.77;;;;;;;;;;5084888;28;20031;-75
2023/06/30 04:08:05;;;;;;;10.55;9.38;;;;;;;;;;5086028;28;20032;-75
2023/06/30 04:10:30;;;;;;;11.35;10.43;;;;;;;;;;5084951;28;20035;-75
2023/06/30 04:12:56;;;;;;;10.48;9.68;;;;;;;;;;5083176;28;20046;-77
2023/06/30 04:15:21;;;;;;;10.95;9.93;;;;;;;;;;5083726;28;20028;-75
2023/06/30 04:17:46;;;;;;;9.95;9.02;;;;;;;;;;5089949;28;20111;-76
2023/06/30 04:20:15;;;;;;;10.75;9.85;;;;;;;;;;5101925;28;20433;-76
2023/06/30 04:22:41;;;;;;;10.13;9.32;;;;;;;;;;5092359;28;20023;-77
2023/06/30 04:25:07;;;;;;;11.20;10.35;;;;;;;;;;5102646;28;20072;-77
2023/06/30 04:27:32;;;;;;;12.00;10.68;;;;;;;;;;5102682;28;20084;-78
2023/06/30 04:29:57;;;;;;;12.43;10.15;;;;;;;;;;5101693;28;20438;-77
2023/06/30 04:32:23;;;;;;;11.05;10.25;;;;;;;;;;5097053;27;20027;-79
2023/06/30 04:34:48;;;;;;;11.38;10.38;;;;;;;;;;5100365;27;20164;-76
2023/06/30 04:37:14;;;;;;;10.80;10.00;;;;;;;;;;5091917;28;20120;-78
2023/06/30 04:39:42;;;;;;;10.75;9.65;;;;;;;;;;5089285;27;20023;-80
2023/06/30 04:42:07;;;;;;;11.40;10.18;;;;;;;;;;5091147;28;20133;-78
2023/06/30 04:44:32;;;;;;;11.40;10.50;;;;;;;;;;5101983;28;20051;-76
2023/06/30 04:46:58;;;;;;;10.68;9.95;;;;;;;;;;5091987;27;20414;-76
2023/06/30 04:49:24;;;;;;;10.38;9.55;;;;;;;;;;5091702;28;20095;-75
2023/06/30 04:51:49;;;;;;;11.73;10.60;;;;;;;;;;5098028;28;20151;-76
2023/06/30 04:54:15;;;;;;;11.25;10.25;;;;;;;;;;5091702;28;20419;-78
2023/06/30 04:56:40;;;;;;;11.02;10.13;;;;;;;;;;5092919;27;20069;-78
2023/06/30 04:59:05;;;;;;;11.40;10.38;;;;;;;;;;5095818;28;20035;-76
2023/06/30 05:01:32;;;;;;;13.93;10.85;;;;;;;;;;5098952;28;20042;-79
2023/06/30 05:03:58;;;;;;;13.55;12.15;;;;;;;;;;5098475;28;20056;-77
2023/06/30 05:06:23;;;;;;;20.00;15.20;;;;;;;;;;5100854;27;20071;-77
2023/06/30 05:08:48;;;;;;;15.07;13.57;;;;;;;;;;5097794;28;20499;-77
2023/06/30 05:11:14;;;;;;;12.90;10.88;;;;;;;;;;5099628;28;20042;-78
2023/06/30 05:13:39;;;;;;;14.57;11.55;;;;;;;;;;5102184;28;20032;-77
2023/06/30 05:16:05;;;;;;;10.50;9.38;;;;;;;;;;5099378;28;20023;-78
2023/06/30 05:18:30;;;;;;;11.25;10.20;;;;;;;;;;5100979;28;20092;-79
2023/06/30 05:20:55;;;;;;;9.35;8.55;;;;;;;;;;5102170;28;20050;-83
2023/06/30 05:23:21;;;;;;;8.93;8.13;;;;;;;;;;5100011;28;20032;-82
2023/06/30 05:25:46;;;;;;;8.95;8.25;;;;;;;;;;5101089;28;20441;-82
2023/06/30 05:28:11;;;;;;;11.50;8.70;;;;;;;;;;5101087;28;20042;-77
2023/06/30 05:30:38;;;;;;;9.85;8.98;;;;;;;;;;5099651;28;20092;-80
2023/06/30 05:33:03;;;;;;;9.52;8.77;;;;;;;;;;5099720;28;20346;-79
2023/06/30 05:35:29;;;;;;;9.05;8.20;;;;;;;;;;5100883;28;20011;-83
2023/06/30 05:37:55;;;;;;;9.52;8.63;;;;;;;;;;5099305;28;20423;-79
2023/06/30 05:40:21;;;;;;;8.85;8.00;;;;;;;;;;5098339;27;20031;-78
2023/06/30 05:42:46;;;;;;;8.23;7.63;;;;;;;;;;5101119;28;20069;-77
2023/06/30 05:45:11;;;;;;;8.35;7.75;;;;;;;;;;5100786;28;20028;-78
2023/06/30 05:47:37;;;;;;;7.72;7.05;;;;;;;;;;5099265;28;20426;-79
2023/06/30 05:50:02;;;;;;;10.05;8.00;;;;;;;;;;5101334;27;20028;-76
2023/06/30 05:52:28;;;;;;;7.68;7.07;;;;;;;;;;5101789;27;20023;-76
2023/06/30 05:54:53;;;;;;;9.10;6.93;;;;;;;;;;5100273;28;20084;-76
2023/06/30 05:57:18;;;;;;;7.47;6.88;;;;;;;;;;5099387;28;20115;-77
2023/06/30 05:59:44;;;;;;;7.63;6.65;;;;;;;;;;5101819;28;20028;-77
2023/06/30 06:02:09;;;;;;;6.55;5.95;;;;;;;;;;5099329;28;20036;-76
2023/06/30 06:04:35;;;;;;;7.32;6.55;;;;;;;;;;5099719;28;20031;-76
2023/06/30 06:07:03;;;;;;;7.70;6.93;;;;;;;;;;5101564;28;20139;-76
2023/06/30 06:09:28;;;;;;;6.85;6.20;;;;;;;;;;5100188;28;20035;-77
2023/06/30 06:11:53;;;;;;;7.35;6.30;;;;;;;;;;5091598;28;20496;-78
2023/06/30 06:14:19;;;;;;;6.57;6.07;;;;;;;;;;5098463;28;20447;-75
2023/06/30 06:16:45;;;;;;;6.57;5.85;;;;;;;;;;5099758;28;20352;-77
2023/06/30 06:19:11;;;;;;;5.60;5.10;;;;;;;;;;5102394;28;20036;-78
2023/06/30 06:21:37;;;;;;;5.82;5.28;;;;;;;;;;5095842;28;20073;-78
2023/06/30 06:24:02;;;;;;;6.72;5.22;;;;;;;;;;5096559;28;20121;-80
2023/06/30 06:26:28;;;;;;;10.70;5.25;;;;;;;;;;5098630;28;20077;-81
2023/06/30 06:28:53;;;;;;;6.07;5.47;;;;;;;;;;5097542;28;20135;-78
2023/06/30 06:31:18;;;;;;;6.32;5.43;;;;;;;;;;5096176;28;20035;-80
2023/06/30 06:33:44;;;;;;;5.80;5.30;;;;;;;;;;5099030;28;20754;-80
2023/06/30 06:36:09;;;;;;;5.50;5.00;;;;;;;;;;5097954;28;20158;-81
2023/06/30 06:38:35;;;;;;;5.60;5.10;;;;;;;;;;5099584;27;20066;-77
2023/06/30 06:41:01;;;;;;;5.13;4.72;;;;;;;;;;5098098;28;20046;-77
2023/06/30 06:43:27;;;;;;;5.18;4.78;;;;;;;;;;5099198;27;20031;-75
2023/06/30 06:45:53;;;;;;;5.65;5.13;;;;;;;;;;5099612;28;20016;-80
2023/06/30 06:48:19;;;;;;;5.45;4.95;;;;;;;;;;5099080;27;20019;-77
2023/06/30 06:50:45;;;;;;;5.28;4.78;;;;;;;;;;5100079;28;20100;-80
2023/06/30 06:53:13;;;;;;;5.47;4.93;;;;;;;;;;5097401;28;20012;-78
2023/06/30 06:55:38;;;;;;;6.20;5.40;;;;;;;;;;5097720;28;20913;-81
2023/06/30 06:58:04;;;;;;;4.97;4.60;;;;;;;;;;5098009;28;20034;-79
2023/06/30 07:00:29;;;;;;;7.25;5.20;;;;;;;;;;5098208;28;20031;-79
2023/06/30 07:02:54;;;;;;;5.43;5.03;;;;;;;;;;5098669;28;20027;-78
2023/06/30 07:05:20;;;;;;;7.18;5.70;;;;;;;;;;5098072;28;20116;-80
2023/06/30 07:07:45;;;;;;;5.95;5.45;;;;;;;;;;5099093;28;20058;-83
2023/06/30 07:10:11;;;;;;;5.45;5.05;;;;;;;;;;5096584;28;20032;-78
2023/06/30 07:12:36;;;;;;;6.03;5.43;;;;;;;;;;5098070;28;20427;-77
2023/06/30 07:15:01;;;;;;;5.85;5.30;;;;;;;;;;5098497;28;20110;-77
2023/06/30 07:17:27;;;;;;;6.40;5.70;;;;;;;;;;5099532;28;20558;-79
2023/06/30 07:19:52;;;;;;;6.28;5.78;;;;;;;;;;5096227;28;20028;-78
2023/06/30 07:22:17;;;;;;;6.32;5.75;;;;;;;;;;5099178;28;20020;-78
2023/06/30 07:24:43;;;;;;;6.82;6.30;;;;;;;;;;5099323;28;20391;-77
2023/06/30 07:27:08;;;;;;;6.43;5.93;;;;;;;;;;5103793;28;20035;-79
2023/06/30 07:29:33;;;;;;;5.97;5.57;;;;;;;;;;5103915;28;20016;-78
2023/06/30 07:31:59;;;;;;;6.47;5.80;;;;;;;;;;5104998;28;20020;-81
2023/06/30 07:34:25;;;;;;;6.72;6.13;;;;;;;;;;5101895;28;20023;-77
2023/06/30 07:36:51;;;;;;;5.80;5.40;;;;;;;;;;5103469;28;20028;-77
2023/06/30 07:39:17;;;;;;;6.20;5.40;;;;;;;;;;5102425;28;20043;-79
2023/06/30 07:41:42;;;;;;;5.60;5.15;;;;;;;;;;5102874;28;20015;-81
2023/06/30 07:44:09;;;;;;;5.38;4.88;;;;;;;;;;5104206;27;20019;-79
2023/06/30 07:46:34;;;;;;;4.93;4.63;;;;;;;;;;5104083;27;20119;-81
2023/06/30 07:48:59;;;;;;;6.10;5.53;;;;;;;;;;5102016;28;20338;-81
2023/06/30 07:51:25;;;;;;;5.47;5.07;;;;;;;;;;5102938;28;20366;-78
2023/06/30 07:53:50;;;;;;;5.93;5.35;;;;;;;;;;5101279;28;20173;-77
2023/06/30 07:56:16;;;;;;;5.45;4.95;;;;;;;;;;5103858;28;20027;-77
2023/06/30 07:58:41;;;;;;;5.95;4.55;;;;;;;;;;5100820;27;20130;-77
2023/06/30 08:01:06;;;;;;;4.72;4.32;;;;;;;;;;5103518;28;20355;-79
2023/06/30 08:03:33;;;;;;;4.53;4.13;;;;;;;;;;5104689;28;20103;-79
2023/06/30 08:05:58;;;;;;;5.63;4.93;;;;;;;;;;5103455;28;20489;-82
2023/06/30 08:08:23;;;;;;;4.63;4.32;;;;;;;;;;5103099;28;20039;-81
2023/06/30 08:10:49;;;;;;;8.85;4.43;;;;;;;;;;5102162;28;20103;-77
2023/06/30 08:13:15;;;;;;;4.80;4.50;;;;;;;;;;5101851;28;20015;-79
2023/06/30 08:15:41;;;;;;;4.88;4.35;;;;;;;;;;5104433;28;20170;-78
2023/06/30 08:18:06;;;;;;;6.00;4.47;;;;;;;;;;5105193;28;20114;-81
2023/06/30 08:20:31;;;;;;;4.55;4.15;;;;;;;;;;5101546;28;20423;-81
2023/06/30 08:22:57;;;;;;;4.78;4.38;;;;;;;;;;5103732;28;22250;-81
2023/06/30 08:25:23;;;;;;;4.47;4.07;;;;;;;;;;5103376;27;20024;-81
2023/06/30 08:27:48;;;;;;;4.15;3.75;;;;;;;;;;5105358;27;20030;-81
2023/06/30 08:30:15;;;;;;;5.43;4.25;;;;;;;;;;5105338;28;20015;-79
2023/06/30 08:32:40;;;;;;;4.40;4.00;;;;;;;;;;5103823;28;20683;-81
2023/06/30 08:35:05;;;;;;;4.10;3.80;;;;;;;;;;5106863;27;20039;-80
2023/06/30 08:37:31;;;;;;;4.10;3.80;;;;;;;;;;5104583;28;20920;-82
2023/06/30 08:39:56;;;;;;;4.03;3.35;;;;;;;;;;5105521;28;20353;-80
2023/06/30 08:42:22;;;;;;;3.55;3.30;;;;;;;;;;5102230;28;20028;-78
2023/06/30 08:44:49;;;;;;;4.25;3.50;;;;;;;;;;5104653;28;20073;-81
2023/06/30 08:47:15;;;;;;;3.85;3.55;;;;;;;;;;5102644;28;20319;-79
2023/06/30 08:49:41;;;;;;;6.15;3.70;;;;;;;;;;5104723;28;20023;-80
2023/06/30 08:52:07;;;;;;;3.50;3.20;;;;;;;;;;5103969;28;20106;-79
2023/06/30 08:54:33;;;;;;;3.60;3.40;;;;;;;;;;5103815;28;20111;-81
2023/06/30 08:57:01;;;;;;;3.92;3.33;;;;;;;;;;5103123;28;20024;-84
2023/06/30 08:59:26;;;;;;;3.63;3.33;;;;;;;;;;5101529;28;20024;-81
2023/06/30 09:01:54;;;;;;;4.38;3.30;;;;;;;;;;5104057;28;20038;-79
2023/06/30 09:04:21;;;;;;;2.97;2.78;;;;;;;;;;5105265;28;20023;-82
2023/06/30 09:06:47;;;;;;;3.10;2.85;;;;;;;;;;5097421;27;20316;-81
2023/06/30 09:09:20;;;;;;;3.03;2.83;;;;;;;;;;5103239;28;20031;-79
2023/06/30 09:11:45;;;;;;;3.08;2.88;;;;;;;;;;5104960;28;20024;-82
2023/06/30 09:14:11;;;;;;;3.15;2.85;;;;;;;;;;5102722;28;20469;-78
2023/06/30 09:16:37;;;;;;;3.13;2.92;;;;;;;;;;5104003;28;20019;-78
2023/06/30 09:19:03;;;;;;;2.97;2.67;;;;;;;;;;5103268;27;20032;-76
2023/06/30 09:21:28;;;;;;;4.10;2.78;;;;;;;;;;5103584;28;20100;-75
2023/06/30 09:23:54;;;;;;;3.40;2.70;;;;;;;;;;5101847;28;20019;-77
2023/06/30 09:26:19;;;;;;;3.45;2.78;;;;;;;;;;5102834;28;20043;-80
2023/06/30 09:28:45;;;;;;;3.25;2.80;;;;;;;;;;5102873;28;20031;-79
2023/06/30 09:31:11;;;;;;;3.35;2.70;;;;;;;;;;5101915;28;20103;-78
2023/06/30 09:33:37;;;;;;;10.05;3.10;;;;;;;;;;5102287;28;20093;-78
2023/06/30 09:36:05;;;;;;;2.80;2.58;;;;;;;;;;5101332;28;21154;-77
2023/06/30 09:38:31;;;;;;;3.92;2.83;;;;;;;;;;5103178;28;20126;-78
2023/06/30 09:40:56;;;;;;;3.42;2.50;;;;;;;;;;5102202;28;20513;-78
2023/06/30 09:43:23;;;;;;;4.70;2.72;;;;;;;;;;5102903;28;20079;-78
2023/06/30 09:45:54;;;;;;;4.93;2.60;;;;;;;;;;5101498;28;20038;-77
2023/06/30 09:48:20;;;;;;;4.60;2.50;;;;;;;;;;5100508;28;20019;-79
2023/06/30 09:50:45;;;;;;;2.40;2.20;;;;;;;;;;5101216;28;20023;-82
2023/06/30 09:53:10;;;;;;;2.50;2.30;;;;;;;;;;5102002;28;20023;-81
2023/06/30 09:55:49;;;;;;;2.47;2.28;;;;;;;;;;5099592;28;20032;-77
2023/06/30 09:58:16;;;;;;;5.10;2.40;;;;;;;;;;5099493;28;20030;-78
2023/06/30 10:00:41;;;;;;;2.05;1.95;;;;;;;;;;5101989;28;20628;-79
2023/06/30 10:03:08;;;;;;;8.00;2.80;;;;;;;;;;5100677;28;20038;-78
2023/06/30 10:05:34;;;;;;;2.53;2.33;;;;;;;;;;5102191;28;20033;-77
2023/06/30 10:08:00;;;;;;;2.20;2.00;;;;;;;;;;5102307;28;20036;-78
2023/06/30 10:10:25;;;;;;;2.22;2.03;;;;;;;;;;5101994;28;21067;-78
2023/06/30 10:12:52;;;;;;;2.50;2.03;;;;;;;;;;5100935;28;20024;-79
2023/06/30 10:15:17;;;;;;;2.17;1.90;;;;;;;;;;5095104;28;20023;-81
2023/06/30 10:17:44;;;;;;;2.05;1.95;;;;;;;;;;5090351;27;20456;-83
2023/06/30 10:20:10;;;;;;;2.53;2.22;;;;;;;;;;5094765;28;20027;-78
2023/06/30 10:22:37;;;;;;;3.20;2.03;;;;;;;;;;5090030;27;20039;-82
2023/06/30 10:25:02;;;;;;;2.50;2.30;;;;;;;;;;5088922;28;20020;-82
2023/06/30 10:27:27;;;;;;;2.08;1.98;;;;;;;;;;5088142;28;20026;-77
2023/06/30 10:29:54;;;;;;;2.65;2.10;;;;;;;;;;5089035;28;20089;-76
2023/06/30 10:32:20;;;;;;;2.15;2.05;;;;;;;;;;5088151;28;20083;-80
2023/06/30 10:34:49;;;;;;;2.20;2.00;;;;;;;;;;5089057;28;20134;-79
2023/06/30 10:37:15;;;;;;;2.33;2.10;;;;;;;;;;5088832;28;20015;-77
2023/06/30 10:39:41;;;;;;;3.05;2.10;;;;;;;;;;5089223;27;20114;-78
2023/06/30 10:42:06;;;;;;;2.13;2.03;;;;;;;;;;5089655;28;20126;-76
2023/06/30 10:44:36;;;;;;;2.08;1.98;;;;;;;;;;5088539;28;20518;-77
2023/06/30 10:47:01;;;;;;;3.13;2.38;;;;;;;;;;5087778;28;20055;-78
2023/06/30 10:49:27;;;;;;;2.50;2.30;;;;;;;;;;5099120;28;20415;-77
2023/06/30 10:51:53;;;;;;;2.10;2.00;;;;;;;;;;5088217;28;20028;-78
2023/06/30 10:54:23;;;;;;;3.25;1.92;;;;;;;;;;5087265;28;20024;-77
2023/06/30 10:56:52;;;;;;;3.17;1.90;;;;;;;;;;5080656;28;20031;-77
2023/06/30 10:59:19;;;;;;;2.20;2.00;;;;;;;;;;5090776;27;20112;-74
2023/06/30 11:02:17;;;;;;;1.85;1.75;;;;;;;;;;5087627;28;20031;-79
2023/06/30 11:04:43;;;;;;;2.42;2.00;;;;;;;;;;5048760;28;20032;-78
2023/06/30 11:07:10;;;;;;;2.10;2.00;;;;;;;;;;5048317;28;20048;-77
2023/06/30 11:09:48;;;;;;;2.78;1.80;;;;;;;;;;5047644;28;20024;-76
2023/06/30 11:12:16;;;;;;;4.43;2.35;;;;;;;;;;5058062;28;20359;-76
2023/06/30 11:14:57;;;;;;;2.08;1.92;;;;;;;;;;5057569;28;20436;-76
2023/06/30 11:17:23;;;;;;;3.47;2.00;;;;;;;;;;5056076;28;20032;-76
2023/06/30 11:19:57;;;;;;;2.00;1.80;;;;;;;;;;5051668;28;20037;-76
2023/06/30 11:22:25;;;;;;;1.80;1.70;;;;;;;;;;5050600;28;20110;-75
2023/06/30 11:24:51;;;;;;;2.10;1.80;;;;;;;;;;5056956;28;20060;-76
2023/06/30 11:27:17;;;;;;;2.13;1.80;;;;;;;;;;5056820;28;20086;-82
2023/06/30 11:29:43;;;;;;;2.60;2.40;;;;;;;;;;5044857;28;20020;-78
2023/06/30 11:32:08;;;;;;;1.98;1.88;;;;;;;;;;5045444;28;20066;-77
2023/06/30 11:34:34;;;;;;;2.30;2.10;;;;;;;;;;5044655;28;20487;-80
2023/06/30 11:37:04;;;;;;;2.15;1.90;;;;;;;;;;5044413;28;20107;-78
2023/06/30 11:39:29;;;;;;;2.15;2.05;;;;;;;;;;5051880;28;20093;-77
2023/06/30 11:41:54;;;;;;;2.20;2.00;;;;;;;;;;5086902;28;20454;-75
2023/06/30 11:44:20;;;;;;;2.42;1.92;;;;;;;;;;5088008;28;20032;-75
2023/06/30 11:46:46;;;;;;;1.90;1.80;;;;;;;;;;5087954;28;20484;-75
2023/06/30 11:49:12;;;;;;;2.92;2.40;;;;;;;;;;5088324;28;20138;-77
2023/06/30 11:51:37;;;;;;;2.13;1.58;;;;;;;;;;5088049;28;20086;-78
2023/06/30 11:54:02;;;;;;;1.45;1.30;;;;;;;;;;5087568;28;20439;-80
2023/06/30 11:56:29;;;;;;;2.67;1.90;;;;;;;;;;5086839;28;20105;-78
2023/06/30 11:58:54;;;;;;;2.10;1.90;;;;;;;;;;5086092;28;20031;-77
2023/06/30 12:01:20;;;;;;;1.55;1.38;;;;;;;;;;5088180;28;21153;-76
2023/06/30 12:03:45;;;;;;;2.17;2.00;;;;;;;;;;5088227;28;20443;-77
2023/06/30 12:06:11;;;;;;;1.77;1.65;;;;;;;;;;5087800;28;20044;-76
2023/06/30 12:08:38;;;;;;;2.00;1.85;;;;;;;;;;5090551;28;20027;-77
2023/06/30 12:11:04;;;;;;;1.70;1.58;;;;;;;;;;5094124;28;20089;-75
2023/06/30 12:13:29;;;;;;;1.65;1.55;;;;;;;;;;5091490;27;20442;-78
2023/06/30 12:15:58;;;;;;;2.72;1.92;;;;;;;;;;5091884;28;20102;-78
2023/06/30 12:18:23;;;;;;;;;;;;;;;;;;5091913;28;20093;-79
2023/06/30 12:20:49;;;;;;;2.03;1.70;;;;;;;;;;5092731;28;20330;-79
2023/06/30 12:23:14;;;;;;;2.42;2.20;;;;;;;;;;5091781;28;20058;-78
2023/06/30 12:25:40;;;;;;;2.80;1.60;;;;;;;;;;5092710;28;20102;-81
2023/06/30 12:28:06;;;;;;;1.65;1.55;;;;;;;;;;5090893;28;20031;-77
2023/06/30 12:30:32;;;;;;;2.03;1.83;;;;;;;;;;5090691;28;20020;-77
2023/06/30 12:32:58;;;;;;;1.67;1.58;;;;;;;;;;5090356;28;20064;-77
2023/06/30 12:35:30;;;;;;;1.83;1.73;;;;;;;;;;5093036;28;20041;-75
2023/06/30 12:37:55;;;;;;;1.75;1.65;;;;;;;;;;5102093;28;20032;-77
2023/06/30 12:40:22;;;;;;;1.63;1.52;;;;;;;;;;5100801;27;20037;-77
2023/06/30 12:42:47;;;;;;;2.00;1.90;;;;;;;;;;5101587;28;20125;-74
2023/06/30 12:45:13;;;;;;;3.78;1.73;;;;;;;;;;5102795;28;20023;-77
2023/06/30 12:47:39;;;;;;;2.60;1.88;;;;;;;;;;5103056;28;20091;-76
2023/06/30 12:50:04;;;;;;;2.13;1.88;;;;;;;;;;5100908;28;20352;-78
2023/06/30 12:52:30;;;;;;;2.75;2.30;;;;;;;;;;5103034;28;20082;-77
2023/06/30 12:54:55;;;;;;;4.90;2.00;;;;;;;;;;5101823;28;20031;-76
2023/06/30 12:57:21;;;;;;;2.10;2.00;;;;;;;;;;5101726;28;20077;-75
2023/06/30 12:59:46;;;;;;;2.33;1.98;;;;;;;;;;5101615;28;20031;-76
2023/06/30 13:02:11;;;;;;;2.10;2.00;;;;;;;;;;5102334;28;20027;-75
2023/06/30 13:04:37;;;;;;;2.25;2.05;;;;;;;;;;5099692;28;20023;-76
2023/06/30 13:07:02;;;;;;;2.40;2.20;;;;;;;;;;5102501;28;20070;-76
2023/06/30 13:09:28;;;;;;;4.05;2.22;;;;;;;;;;5100023;28;20122;-76
2023/06/30 13:11:53;;;;;;;3.05;2.20;;;;;;;;;;5101767;28;20495;-76
2023/06/30 13:14:19;;;;;;;2.50;2.30;;;;;;;;;;5100736;28;20028;-77
2023/06/30 13:16:44;;;;;;;2.78;2.35;;;;;;;;;;5103003;28;20065;-75
2023/06/30 13:19:10;;;;;;;2.30;2.20;;;;;;;;;;5101031;28;20028;-76
2023/06/30 13:21:35;;;;;;;2.50;2.30;;;;;;;;;;5101620;28;20031;-79
2023/06/30 13:24:01;;;;;;;2.22;2.03;;;;;;;;;;5101048;28;20030;-76
2023/06/30 13:26:26;;;;;;;2.25;2.08;;;;;;;;;;5099890;28;20028;-76
2023/06/30 13:28:51;;;;;;;2.45;2.25;;;;;;;;;;5100599;28;21152;-76
2023/06/30 13:31:17;;;;;;;3.67;2.30;;;;;;;;;;5101003;27;20450;-76
2023/06/30 13:33:42;;;;;;;2.15;2.05;;;;;;;;;;5091325;27;20439;-74
2023/06/30 13:36:08;;;;;;;3.70;2.35;;;;;;;;;;5085601;28;20063;-76
2023/06/30 13:38:34;;;;;;;2.78;2.33;;;;;;;;;;5089491;28;20035;-76
2023/06/30 13:40:59;;;;;;;2.42;2.22;;;;;;;;;;5090341;28;20034;-76
2023/06/30 13:43:24;;;;;;;2.40;2.20;;;;;;;;;;5090437;27;20849;-76
2023/06/30 13:45:50;;;;;;;2.20;2.10;;;;;;;;;;5088144;28;20043;-77
2023/06/30 13:48:15;;;;;;;2.40;2.20;;;;;;;;;;5089204;28;20061;-75
2023/06/30 13:50:41;;;;;;;4.15;2.10;;;;;;;;;;5089289;28;20031;-77
2023/06/30 13:53:06;;;;;;;4.22;2.10;;;;;;;;;;5088456;28;20028;-77
2023/06/30 13:55:32;;;;;;;2.15;1.92;;;;;;;;;;5086960;28;20447;-75
2023/06/30 13:57:57;;;;;;;1.85;1.70;;;;;;;;;;5087465;27;20038;-78
2023/06/30 14:00:23;;;;;;;7.90;7.20;;;;;;;;;;5087289;27;20027;-75
2023/06/30 14:02:48;;;;;;;5.90;4.93;;;;;;;;;;5088801;28;20107;-76
2023/06/30 14:05:13;;;;;;;3.42;3.22;;;;;;;;;;5090628;28;20097;-78
2023/06/30 14:07:39;;;;;;;2.05;1.95;;;;;;;;;;5101701;28;20055;-79
2023/06/30 14:10:04;;;;;;;2.05;1.63;;;;;;;;;;5095942;28;20023;-77
2023/06/30 14:12:30;;;;;;;2.90;2.03;;;;;;;;;;5089553;28;20016;-77
2023/06/30 14:14:56;;;;;;;1.98;1.88;;;;;;;;;;5093652;28;20079;-77
2023/06/30 14:17:21;;;;;;;1.70;1.60;;;;;;;;;;5095061;28;20015;-78
2023/06/30 14:19:46;;;;;;;1.80;1.70;;;;;;;;;;5093151;28;21032;-77
2023/06/30 14:22:12;;;;;;;5.32;1.60;;;;;;;;;;5100276;28;20026;-77
2023/06/30 14:24:37;;;;;;;2.67;1.88;;;;;;;;;;5100819;27;20054;-77
2023/06/30 14:27:03;;;;;;;2.45;1.67;;;;;;;;;;5101240;28;20460;-78
2023/06/30 14:29:28;;;;;;;1.50;1.40;;;;;;;;;;5098229;28;20028;-80
2023/06/30 14:31:53;;;;;;;3.00;1.60;;;;;;;;;;5094714;28;20477;-78
2023/06/30 14:34:19;;;;;;;1.67;1.58;;;;;;;;;;5090999;28;20020;-77